Delta Virtual Airport Information Service

Miami International Airport

ICAO: KMIA Country: United States
Latitude: 25.7932 Longitude: -80.2905
Latest Arrival : DAC169 (MPTO-KMIA) Latest Departure : DLH461 (KMIA-EDDM)


WX CaptureLIVE
Data provided by noaa.gov | Fetched at 12:24:27

METAR : KMIA 281653Z 23017G22KT 10SM SCT032 BKN050 BKN070 BKN300 32/24 A2984 RMK AO2 SLP106 CB DSNT N AND E MOV NE T03220244

TAF : KMIA 281452Z 2815/2918 21012KT P6SM VCTS SCT025CB BKN050 FM281900 22013G20KT P6SM VCTS SCT025CB BKN035 FM290200 21010KT P6SM VCTS SCT025CB BKN050 FM291100 24006KT P6SM VCSH SCT025 BKN080 FM291500 25015G25KT P6SM VCSH SCT030 BKN050


Runway Data for KMIA
Data provided by openaviationdata.com

Runway ID Mag Var Hdg Length Elevation Surface ILS Freq ILS Id ILS Slope
08L -5 92° 8595 ft 8 ft Concrete 109.3 IROY 0
08R -5 92° 10498 ft 8 ft Asphalt 110.3 IMFA 3
9 -5 92° 12994 ft 8 ft Concrete 110.9 IBUL 3
12 -5 124° 9357 ft 8 ft Concrete 108.9 IGEM 3
26L -5 272° 10498 ft 8 ft Asphalt 109.1 IVIN 3
26R -5 272° 8595 ft 8 ft Concrete 109.3 ICNV 0
27 -5 272° 12994 ft 8 ft Concrete 109.5 IMIA 3
30 -5 304° 9357 ft 8 ft Concrete 111.7 IDCX 3

Miami International Airport, United States
Use only for reference purposes



Not for navigational purposes.